sensor_id;sensor_type;location;lat;lon;timestamp;P1;durP1;ratioP1;P2;durP2;ratioP2
11653;SDS011;5883;48.818;9.114;2022-11-12T00:01:44;10.50;;;8.73;;
11653;SDS011;5883;48.818;9.114;2022-11-12T00:04:10;14.25;;;9.30;;
11653;SDS011;5883;48.818;9.114;2022-11-12T00:06:37;11.23;;;8.73;;
11653;SDS011;5883;48.818;9.114;2022-11-12T00:09:03;11.30;;;8.50;;
11653;SDS011;5883;48.818;9.114;2022-11-12T00:11:30;14.65;;;8.30;;
11653;SDS011;5883;48.818;9.114;2022-11-12T00:13:56;13.70;;;9.35;;
11653;SDS011;5883;48.818;9.114;2022-11-12T00:16:23;12.60;;;8.68;;
11653;SDS011;5883;48.818;9.114;2022-11-12T00:18:57;11.82;;;8.52;;
11653;SDS011;5883;48.818;9.114;2022-11-12T00:21:24;9.52;;;8.07;;
11653;SDS011;5883;48.818;9.114;2022-11-12T00:23:50;13.32;;;8.80;;
11653;SDS011;5883;48.818;9.114;2022-11-12T00:26:16;11.18;;;8.65;;
11653;SDS011;5883;48.818;9.114;2022-11-12T00:28:43;12.98;;;8.02;;
11653;SDS011;5883;48.818;9.114;2022-11-12T00:31:10;11.60;;;8.15;;
11653;SDS011;5883;48.818;9.114;2022-11-12T00:33:39;14.32;;;9.00;;
11653;SDS011;5883;48.818;9.114;2022-11-12T00:36:08;10.80;;;7.78;;
11653;SDS011;5883;48.818;9.114;2022-11-12T00:38:35;9.68;;;7.82;;
11653;SDS011;5883;48.818;9.114;2022-11-12T00:41:01;15.90;;;8.48;;
11653;SDS011;5883;48.818;9.114;2022-11-12T00:43:28;14.77;;;7.95;;
11653;SDS011;5883;48.818;9.114;2022-11-12T00:45:54;12.00;;;8.35;;
11653;SDS011;5883;48.818;9.114;2022-11-12T00:48:21;12.05;;;8.18;;
11653;SDS011;5883;48.818;9.114;2022-11-12T00:50:47;14.70;;;9.25;;
11653;SDS011;5883;48.818;9.114;2022-11-12T00:53:15;12.80;;;7.85;;
11653;SDS011;5883;48.818;9.114;2022-11-12T00:55:42;11.80;;;7.53;;
11653;SDS011;5883;48.818;9.114;2022-11-12T00:58:08;12.15;;;7.85;;
11653;SDS011;5883;48.818;9.114;2022-11-12T01:00:34;12.55;;;7.60;;
11653;SDS011;5883;48.818;9.114;2022-11-12T01:03:01;13.05;;;8.25;;
11653;SDS011;5883;48.818;9.114;2022-11-12T01:05:28;10.32;;;7.68;;
11653;SDS011;5883;48.818;9.114;2022-11-12T01:07:55;10.23;;;8.18;;
11653;SDS011;5883;48.818;9.114;2022-11-12T01:10:22;11.35;;;8.65;;
11653;SDS011;5883;48.818;9.114;2022-11-12T01:12:49;13.43;;;8.82;;
11653;SDS011;5883;48.818;9.114;2022-11-12T01:15:15;15.13;;;8.93;;
11653;SDS011;5883;48.818;9.114;2022-11-12T01:17:42;10.85;;;7.93;;
11653;SDS011;5883;48.818;9.114;2022-11-12T01:20:09;11.13;;;7.65;;
11653;SDS011;5883;48.818;9.114;2022-11-12T01:22:35;13.90;;;8.10;;
11653;SDS011;5883;48.818;9.114;2022-11-12T01:25:02;21.13;;;10.55;;
11653;SDS011;5883;48.818;9.114;2022-11-12T01:27:30;29.58;;;12.13;;
11653;SDS011;5883;48.818;9.114;2022-11-12T01:29:56;33.03;;;13.68;;
11653;SDS011;5883;48.818;9.114;2022-11-12T01:32:23;37.63;;;15.38;;
11653;SDS011;5883;48.818;9.114;2022-11-12T01:34:51;45.85;;;18.58;;
11653;SDS011;5883;48.818;9.114;2022-11-12T01:37:18;34.58;;;16.45;;
11653;SDS011;5883;48.818;9.114;2022-11-12T01:39:44;41.22;;;16.40;;
11653;SDS011;5883;48.818;9.114;2022-11-12T01:42:11;29.75;;;14.57;;
11653;SDS011;5883;48.818;9.114;2022-11-12T01:44:40;29.60;;;13.30;;
11653;SDS011;5883;48.818;9.114;2022-11-12T01:47:09;27.08;;;11.98;;
11653;SDS011;5883;48.818;9.114;2022-11-12T01:49:38;31.42;;;13.43;;
11653;SDS011;5883;48.818;9.114;2022-11-12T01:52:12;18.85;;;10.90;;
11653;SDS011;5883;48.818;9.114;2022-11-12T01:54:40;16.75;;;9.30;;
11653;SDS011;5883;48.818;9.114;2022-11-12T01:57:08;13.38;;;8.73;;
11653;SDS011;5883;48.818;9.114;2022-11-12T01:59:36;19.30;;;9.65;;
11653;SDS011;5883;48.818;9.114;2022-11-12T02:02:05;17.63;;;9.80;;
11653;SDS011;5883;48.818;9.114;2022-11-12T02:04:31;16.05;;;9.02;;
11653;SDS011;5883;48.818;9.114;2022-11-12T02:06:58;17.20;;;8.88;;
11653;SDS011;5883;48.818;9.114;2022-11-12T02:09:25;17.30;;;10.00;;
11653;SDS011;5883;48.818;9.114;2022-11-12T02:11:52;17.30;;;9.07;;
11653;SDS011;5883;48.818;9.114;2022-11-12T02:14:24;16.50;;;8.95;;
11653;SDS011;5883;48.818;9.114;2022-11-12T02:16:58;11.38;;;8.40;;
11653;SDS011;5883;48.818;9.114;2022-11-12T02:19:26;12.32;;;8.90;;
11653;SDS011;5883;48.818;9.114;2022-11-12T02:21:54;12.73;;;9.63;;
11653;SDS011;5883;48.818;9.114;2022-11-12T02:24:29;11.82;;;8.15;;
11653;SDS011;5883;48.818;9.114;2022-11-12T02:26:56;16.20;;;9.40;;
11653;SDS011;5883;48.818;9.114;2022-11-12T02:29:23;12.40;;;9.32;;
11653;SDS011;5883;48.818;9.114;2022-11-12T02:31:50;12.18;;;8.60;;
11653;SDS011;5883;48.818;9.114;2022-11-12T02:34:16;15.07;;;8.98;;
11653;SDS011;5883;48.818;9.114;2022-11-12T02:36:43;11.20;;;8.32;;
11653;SDS011;5883;48.818;9.114;2022-11-12T02:39:11;13.57;;;9.23;;
11653;SDS011;5883;48.818;9.114;2022-11-12T02:41:37;14.25;;;8.27;;
11653;SDS011;5883;48.818;9.114;2022-11-12T02:44:04;13.65;;;8.32;;
11653;SDS011;5883;48.818;9.114;2022-11-12T02:46:30;14.25;;;8.55;;
11653;SDS011;5883;48.818;9.114;2022-11-12T02:48:57;12.32;;;8.95;;
11653;SDS011;5883;48.818;9.114;2022-11-12T02:51:24;12.98;;;8.00;;
11653;SDS011;5883;48.818;9.114;2022-11-12T02:53:51;11.90;;;8.50;;
11653;SDS011;5883;48.818;9.114;2022-11-12T02:56:19;12.73;;;8.27;;
11653;SDS011;5883;48.818;9.114;2022-11-12T02:58:45;12.07;;;8.13;;
11653;SDS011;5883;48.818;9.114;2022-11-12T03:01:12;12.30;;;7.95;;
11653;SDS011;5883;48.818;9.114;2022-11-12T03:03:38;10.02;;;7.43;;
11653;SDS011;5883;48.818;9.114;2022-11-12T03:06:05;11.55;;;8.10;;
11653;SDS011;5883;48.818;9.114;2022-11-12T03:08:32;11.48;;;7.28;;
11653;SDS011;5883;48.818;9.114;2022-11-12T03:11:04;10.00;;;7.35;;
11653;SDS011;5883;48.818;9.114;2022-11-12T03:13:32;11.45;;;7.50;;
11653;SDS011;5883;48.818;9.114;2022-11-12T03:15:58;10.13;;;7.47;;
11653;SDS011;5883;48.818;9.114;2022-11-12T03:18:25;10.45;;;7.03;;
11653;SDS011;5883;48.818;9.114;2022-11-12T03:20:52;10.43;;;7.50;;
11653;SDS011;5883;48.818;9.114;2022-11-12T03:23:18;11.55;;;8.20;;
11653;SDS011;5883;48.818;9.114;2022-11-12T03:25:45;11.68;;;7.60;;
11653;SDS011;5883;48.818;9.114;2022-11-12T03:28:12;10.20;;;7.15;;
11653;SDS011;5883;48.818;9.114;2022-11-12T03:30:41;9.68;;;7.05;;
11653;SDS011;5883;48.818;9.114;2022-11-12T03:33:09;10.88;;;7.63;;
11653;SDS011;5883;48.818;9.114;2022-11-12T03:35:36;12.75;;;7.15;;
11653;SDS011;5883;48.818;9.114;2022-11-12T03:38:03;11.32;;;7.45;;
11653;SDS011;5883;48.818;9.114;2022-11-12T03:40:30;9.13;;;7.30;;
11653;SDS011;5883;48.818;9.114;2022-11-12T03:42:57;15.32;;;8.60;;
11653;SDS011;5883;48.818;9.114;2022-11-12T03:45:25;10.13;;;6.63;;
11653;SDS011;5883;48.818;9.114;2022-11-12T03:47:54;10.10;;;7.82;;
11653;SDS011;5883;48.818;9.114;2022-11-12T03:50:21;12.43;;;6.95;;
11653;SDS011;5883;48.818;9.114;2022-11-12T03:52:49;8.30;;;6.35;;
11653;SDS011;5883;48.818;9.114;2022-11-12T03:55:17;9.25;;;6.28;;
11653;SDS011;5883;48.818;9.114;2022-11-12T03:57:43;12.43;;;7.07;;
11653;SDS011;5883;48.818;9.114;2022-11-12T04:00:10;8.68;;;6.47;;
11653;SDS011;5883;48.818;9.114;2022-11-12T04:02:37;8.77;;;6.25;;
11653;SDS011;5883;48.818;9.114;2022-11-12T04:05:06;8.88;;;6.65;;
11653;SDS011;5883;48.818;9.114;2022-11-12T04:07:55;6.80;;;5.70;;
11653;SDS011;5883;48.818;9.114;2022-11-12T04:10:39;10.15;;;6.80;;
11653;SDS011;5883;48.818;9.114;2022-11-12T04:13:05;8.75;;;5.82;;
11653;SDS011;5883;48.818;9.114;2022-11-12T04:15:49;7.75;;;6.50;;
11653;SDS011;5883;48.818;9.114;2022-11-12T04:18:37;8.63;;;6.45;;
11653;SDS011;5883;48.818;9.114;2022-11-12T04:21:22;7.75;;;5.63;;
11653;SDS011;5883;48.818;9.114;2022-11-12T04:24:06;8.52;;;6.57;;
11653;SDS011;5883;48.818;9.114;2022-11-12T04:26:33;9.20;;;6.90;;
11653;SDS011;5883;48.818;9.114;2022-11-12T04:28:58;8.23;;;6.47;;
11653;SDS011;5883;48.818;9.114;2022-11-12T04:31:42;9.48;;;6.63;;
11653;SDS011;5883;48.818;9.114;2022-11-12T04:34:08;11.07;;;7.13;;
11653;SDS011;5883;48.818;9.114;2022-11-12T04:36:59;9.98;;;7.05;;
11653;SDS011;5883;48.818;9.114;2022-11-12T04:39:25;10.20;;;7.45;;
11653;SDS011;5883;48.818;9.114;2022-11-12T04:41:52;8.70;;;7.30;;
11653;SDS011;5883;48.818;9.114;2022-11-12T04:44:36;8.85;;;7.13;;
11653;SDS011;5883;48.818;9.114;2022-11-12T04:47:20;8.18;;;7.03;;
11653;SDS011;5883;48.818;9.114;2022-11-12T04:49:46;8.52;;;7.03;;
11653;SDS011;5883;48.818;9.114;2022-11-12T04:52:14;10.38;;;7.10;;
11653;SDS011;5883;48.818;9.114;2022-11-12T04:54:41;9.88;;;7.10;;
11653;SDS011;5883;48.818;9.114;2022-11-12T04:57:07;8.68;;;7.22;;
11653;SDS011;5883;48.818;9.114;2022-11-12T04:59:34;9.65;;;7.15;;
11653;SDS011;5883;48.818;9.114;2022-11-12T05:02:00;7.72;;;6.85;;
11653;SDS011;5883;48.818;9.114;2022-11-12T05:04:27;9.98;;;7.20;;
11653;SDS011;5883;48.818;9.114;2022-11-12T05:06:54;8.15;;;6.90;;
11653;SDS011;5883;48.818;9.114;2022-11-12T05:09:23;7.95;;;6.80;;
11653;SDS011;5883;48.818;9.114;2022-11-12T05:11:49;7.65;;;5.93;;
11653;SDS011;5883;48.818;9.114;2022-11-12T05:14:16;7.68;;;6.55;;
11653;SDS011;5883;48.818;9.114;2022-11-12T05:16:43;7.88;;;6.70;;
11653;SDS011;5883;48.818;9.114;2022-11-12T05:19:10;8.50;;;6.63;;
11653;SDS011;5883;48.818;9.114;2022-11-12T05:21:36;8.25;;;6.38;;
11653;SDS011;5883;48.818;9.114;2022-11-12T05:24:21;8.23;;;7.03;;
11653;SDS011;5883;48.818;9.114;2022-11-12T05:26:48;8.25;;;6.60;;
11653;SDS011;5883;48.818;9.114;2022-11-12T05:29:14;9.43;;;6.72;;
11653;SDS011;5883;48.818;9.114;2022-11-12T05:31:41;9.43;;;6.97;;
11653;SDS011;5883;48.818;9.114;2022-11-12T05:34:07;8.98;;;6.43;;
11653;SDS011;5883;48.818;9.114;2022-11-12T05:36:34;7.68;;;5.90;;
11653;SDS011;5883;48.818;9.114;2022-11-12T05:39:00;6.57;;;5.82;;
11653;SDS011;5883;48.818;9.114;2022-11-12T05:41:28;7.20;;;5.85;;
11653;SDS011;5883;48.818;9.114;2022-11-12T05:43:54;8.00;;;7.03;;
11653;SDS011;5883;48.818;9.114;2022-11-12T05:46:21;13.40;;;11.57;;
11653;SDS011;5883;48.818;9.114;2022-11-12T05:48:47;21.15;;;15.93;;
11653;SDS011;5883;48.818;9.114;2022-11-12T05:51:14;28.58;;;24.88;;
11653;SDS011;5883;48.818;9.114;2022-11-12T05:53:41;40.13;;;33.47;;
11653;SDS011;5883;48.818;9.114;2022-11-12T05:56:08;24.83;;;17.85;;
11653;SDS011;5883;48.818;9.114;2022-11-12T05:58:36;12.43;;;10.57;;
11653;SDS011;5883;48.818;9.114;2022-11-12T06:01:03;9.93;;;7.00;;
11653;SDS011;5883;48.818;9.114;2022-11-12T06:03:30;10.02;;;8.13;;
11653;SDS011;5883;48.818;9.114;2022-11-12T06:05:56;10.38;;;8.05;;
11653;SDS011;5883;48.818;9.114;2022-11-12T06:08:23;10.95;;;8.52;;
11653;SDS011;5883;48.818;9.114;2022-11-12T06:10:50;10.45;;;7.88;;
11653;SDS011;5883;48.818;9.114;2022-11-12T06:13:17;10.10;;;7.25;;
11653;SDS011;5883;48.818;9.114;2022-11-12T06:15:45;9.70;;;8.10;;
11653;SDS011;5883;48.818;9.114;2022-11-12T06:18:11;7.65;;;6.88;;
11653;SDS011;5883;48.818;9.114;2022-11-12T06:20:38;7.57;;;6.63;;
11653;SDS011;5883;48.818;9.114;2022-11-12T06:23:04;7.35;;;5.57;;
11653;SDS011;5883;48.818;9.114;2022-11-12T06:25:31;7.30;;;5.40;;
11653;SDS011;5883;48.818;9.114;2022-11-12T06:27:58;6.70;;;5.32;;
11653;SDS011;5883;48.818;9.114;2022-11-12T06:30:24;6.60;;;5.40;;
11653;SDS011;5883;48.818;9.114;2022-11-12T06:32:52;6.97;;;5.25;;
11653;SDS011;5883;48.818;9.114;2022-11-12T06:35:19;5.93;;;5.32;;
11653;SDS011;5883;48.818;9.114;2022-11-12T06:37:46;9.57;;;5.70;;
11653;SDS011;5883;48.818;9.114;2022-11-12T06:40:12;6.18;;;5.20;;
11653;SDS011;5883;48.818;9.114;2022-11-12T06:42:39;5.28;;;4.78;;
11653;SDS011;5883;48.818;9.114;2022-11-12T06:45:06;6.55;;;5.13;;
11653;SDS011;5883;48.818;9.114;2022-11-12T06:47:32;6.88;;;5.07;;
11653;SDS011;5883;48.818;9.114;2022-11-12T06:50:00;6.13;;;5.10;;
11653;SDS011;5883;48.818;9.114;2022-11-12T06:52:27;6.22;;;5.45;;
11653;SDS011;5883;48.818;9.114;2022-11-12T06:54:54;6.97;;;5.20;;
11653;SDS011;5883;48.818;9.114;2022-11-12T06:57:20;6.28;;;4.68;;
11653;SDS011;5883;48.818;9.114;2022-11-12T06:59:46;8.38;;;5.57;;
11653;SDS011;5883;48.818;9.114;2022-11-12T07:02:13;9.68;;;5.88;;
11653;SDS011;5883;48.818;9.114;2022-11-12T07:04:39;14.15;;;9.23;;
11653;SDS011;5883;48.818;9.114;2022-11-12T07:07:07;12.63;;;8.82;;
11653;SDS011;5883;48.818;9.114;2022-11-12T07:09:34;12.18;;;8.20;;
11653;SDS011;5883;48.818;9.114;2022-11-12T07:12:01;14.32;;;8.60;;
11653;SDS011;5883;48.818;9.114;2022-11-12T07:14:27;9.77;;;7.95;;
11653;SDS011;5883;48.818;9.114;2022-11-12T07:16:54;8.50;;;6.90;;
11653;SDS011;5883;48.818;9.114;2022-11-12T07:19:20;9.48;;;7.57;;
11653;SDS011;5883;48.818;9.114;2022-11-12T07:21:47;11.88;;;7.28;;
11653;SDS011;5883;48.818;9.114;2022-11-12T07:24:14;7.72;;;6.55;;
11653;SDS011;5883;48.818;9.114;2022-11-12T07:26:41;8.95;;;6.38;;
11653;SDS011;5883;48.818;9.114;2022-11-12T07:29:08;8.57;;;6.00;;
11653;SDS011;5883;48.818;9.114;2022-11-12T07:31:34;10.13;;;6.78;;
11653;SDS011;5883;48.818;9.114;2022-11-12T07:34:01;7.38;;;6.03;;
11653;SDS011;5883;48.818;9.114;2022-11-12T07:36:27;11.18;;;6.95;;
11653;SDS011;5883;48.818;9.114;2022-11-12T07:38:54;5.95;;;5.25;;
11653;SDS011;5883;48.818;9.114;2022-11-12T07:41:22;6.82;;;5.13;;
11653;SDS011;5883;48.818;9.114;2022-11-12T07:43:50;6.35;;;5.22;;
11653;SDS011;5883;48.818;9.114;2022-11-12T07:46:18;6.13;;;5.53;;
11653;SDS011;5883;48.818;9.114;2022-11-12T07:48:45;8.32;;;5.65;;
11653;SDS011;5883;48.818;9.114;2022-11-12T07:51:12;10.85;;;5.70;;
11653;SDS011;5883;48.818;9.114;2022-11-12T07:53:39;12.30;;;6.05;;
11653;SDS011;5883;48.818;9.114;2022-11-12T07:56:05;7.93;;;6.15;;
11653;SDS011;5883;48.818;9.114;2022-11-12T07:58:33;14.23;;;7.55;;
11653;SDS011;5883;48.818;9.114;2022-11-12T08:01:05;8.68;;;6.05;;
11653;SDS011;5883;48.818;9.114;2022-11-12T08:03:32;6.35;;;5.07;;
11653;SDS011;5883;48.818;9.114;2022-11-12T08:05:59;10.52;;;5.55;;
11653;SDS011;5883;48.818;9.114;2022-11-12T08:08:25;6.05;;;4.80;;
11653;SDS011;5883;48.818;9.114;2022-11-12T08:10:53;6.13;;;4.88;;
11653;SDS011;5883;48.818;9.114;2022-11-12T08:13:19;5.32;;;4.57;;
11653;SDS011;5883;48.818;9.114;2022-11-12T08:15:47;5.45;;;4.88;;
11653;SDS011;5883;48.818;9.114;2022-11-12T08:18:14;7.15;;;4.80;;
11653;SDS011;5883;48.818;9.114;2022-11-12T08:20:40;6.00;;;4.53;;
11653;SDS011;5883;48.818;9.114;2022-11-12T08:23:07;5.35;;;4.85;;
11653;SDS011;5883;48.818;9.114;2022-11-12T08:25:34;6.60;;;5.00;;
11653;SDS011;5883;48.818;9.114;2022-11-12T08:28:00;6.05;;;4.45;;
11653;SDS011;5883;48.818;9.114;2022-11-12T08:30:27;5.00;;;4.50;;
11653;SDS011;5883;48.818;9.114;2022-11-12T08:32:56;8.18;;;4.57;;
11653;SDS011;5883;48.818;9.114;2022-11-12T08:35:23;5.25;;;4.75;;
11653;SDS011;5883;48.818;9.114;2022-11-12T08:37:50;5.40;;;4.60;;
11653;SDS011;5883;48.818;9.114;2022-11-12T08:40:16;5.75;;;4.47;;
11653;SDS011;5883;48.818;9.114;2022-11-12T08:42:43;6.35;;;4.95;;
11653;SDS011;5883;48.818;9.114;2022-11-12T08:45:09;5.25;;;4.70;;
11653;SDS011;5883;48.818;9.114;2022-11-12T08:47:36;5.18;;;4.68;;
11653;SDS011;5883;48.818;9.114;2022-11-12T08:50:04;7.00;;;4.45;;
11653;SDS011;5883;48.818;9.114;2022-11-12T08:52:31;4.28;;;3.80;;
11653;SDS011;5883;48.818;9.114;2022-11-12T08:54:57;6.00;;;3.58;;
11653;SDS011;5883;48.818;9.114;2022-11-12T08:57:24;4.07;;;3.40;;
11653;SDS011;5883;48.818;9.114;2022-11-12T08:59:50;3.55;;;3.10;;
11653;SDS011;5883;48.818;9.114;2022-11-12T09:02:16;4.25;;;3.58;;
11653;SDS011;5883;48.818;9.114;2022-11-12T09:04:43;4.45;;;3.33;;
11653;SDS011;5883;48.818;9.114;2022-11-12T09:07:11;4.40;;;3.80;;
11653;SDS011;5883;48.818;9.114;2022-11-12T09:09:37;3.50;;;3.17;;
11653;SDS011;5883;48.818;9.114;2022-11-12T09:12:04;4.07;;;3.67;;
11653;SDS011;5883;48.818;9.114;2022-11-12T09:14:31;4.30;;;3.45;;
11653;SDS011;5883;48.818;9.114;2022-11-12T09:16:57;3.83;;;3.30;;
11653;SDS011;5883;48.818;9.114;2022-11-12T09:19:24;5.78;;;3.50;;
11653;SDS011;5883;48.818;9.114;2022-11-12T09:21:50;4.30;;;3.90;;
11653;SDS011;5883;48.818;9.114;2022-11-12T09:24:18;5.18;;;3.30;;
11653;SDS011;5883;48.818;9.114;2022-11-12T09:26:45;5.55;;;3.35;;
11653;SDS011;5883;48.818;9.114;2022-11-12T09:29:12;6.65;;;3.55;;
11653;SDS011;5883;48.818;9.114;2022-11-12T09:31:39;5.40;;;3.63;;
11653;SDS011;5883;48.818;9.114;2022-11-12T09:34:05;6.63;;;3.53;;
11653;SDS011;5883;48.818;9.114;2022-11-12T09:36:32;6.13;;;3.60;;
11653;SDS011;5883;48.818;9.114;2022-11-12T09:38:58;3.80;;;3.47;;
11653;SDS011;5883;48.818;9.114;2022-11-12T09:41:27;5.13;;;3.78;;
11653;SDS011;5883;48.818;9.114;2022-11-12T09:43:57;5.68;;;4.32;;
11653;SDS011;5883;48.818;9.114;2022-11-12T09:46:33;4.95;;;3.70;;
11653;SDS011;5883;48.818;9.114;2022-11-12T09:49:02;5.80;;;3.95;;
11653;SDS011;5883;48.818;9.114;2022-11-12T09:51:31;6.43;;;4.05;;
11653;SDS011;5883;48.818;9.114;2022-11-12T09:53:59;4.20;;;3.65;;
11653;SDS011;5883;48.818;9.114;2022-11-12T09:56:28;5.38;;;3.70;;
11653;SDS011;5883;48.818;9.114;2022-11-12T09:58:55;4.57;;;3.72;;
11653;SDS011;5883;48.818;9.114;2022-11-12T10:01:23;4.35;;;3.65;;
11653;SDS011;5883;48.818;9.114;2022-11-12T10:03:54;4.35;;;3.95;;
11653;SDS011;5883;48.818;9.114;2022-11-12T10:06:34;4.97;;;4.07;;
11653;SDS011;5883;48.818;9.114;2022-11-12T10:09:03;4.75;;;3.97;;
11653;SDS011;5883;48.818;9.114;2022-11-12T10:11:36;6.07;;;4.15;;
11653;SDS011;5883;48.818;9.114;2022-11-12T10:14:21;5.45;;;4.18;;
11653;SDS011;5883;48.818;9.114;2022-11-12T10:16:52;4.60;;;4.05;;
11653;SDS011;5883;48.818;9.114;2022-11-12T10:19:25;5.45;;;4.32;;
11653;SDS011;5883;48.818;9.114;2022-11-12T10:21:57;6.57;;;4.13;;
11653;SDS011;5883;48.818;9.114;2022-11-12T10:24:28;6.15;;;4.28;;
11653;SDS011;5883;48.818;9.114;2022-11-12T10:26:59;7.57;;;4.50;;
11653;SDS011;5883;48.818;9.114;2022-11-12T10:29:27;5.60;;;4.85;;
11653;SDS011;5883;48.818;9.114;2022-11-12T10:31:54;5.15;;;4.18;;
11653;SDS011;5883;48.818;9.114;2022-11-12T10:34:21;4.90;;;4.25;;
11653;SDS011;5883;48.818;9.114;2022-11-12T10:36:50;6.90;;;4.22;;
11653;SDS011;5883;48.818;9.114;2022-11-12T10:42:07;4.85;;;4.35;;
11653;SDS011;5883;48.818;9.114;2022-11-12T10:44:34;6.90;;;4.78;;
11653;SDS011;5883;48.818;9.114;2022-11-12T10:47:24;7.68;;;4.25;;
11653;SDS011;5883;48.818;9.114;2022-11-12T10:50:05;4.57;;;3.90;;
11653;SDS011;5883;48.818;9.114;2022-11-12T10:52:35;4.97;;;4.03;;
11653;SDS011;5883;48.818;9.114;2022-11-12T10:55:03;5.07;;;4.15;;
11653;SDS011;5883;48.818;9.114;2022-11-12T10:57:32;5.82;;;4.45;;
11653;SDS011;5883;48.818;9.114;2022-11-12T11:00:06;5.55;;;3.95;;
11653;SDS011;5883;48.818;9.114;2022-11-12T11:02:33;6.50;;;3.95;;
11653;SDS011;5883;48.818;9.114;2022-11-12T11:05:00;6.13;;;4.22;;
11653;SDS011;5883;48.818;9.114;2022-11-12T11:07:48;5.43;;;3.85;;
11653;SDS011;5883;48.818;9.114;2022-11-12T11:10:21;4.28;;;3.88;;
11653;SDS011;5883;48.818;9.114;2022-11-12T11:12:49;4.50;;;3.72;;
11653;SDS011;5883;48.818;9.114;2022-11-12T11:15:33;4.57;;;3.80;;
11653;SDS011;5883;48.818;9.114;2022-11-12T11:18:00;4.22;;;3.67;;
11653;SDS011;5883;48.818;9.114;2022-11-12T11:20:27;5.53;;;3.85;;
11653;SDS011;5883;48.818;9.114;2022-11-12T11:22:56;4.10;;;3.65;;
11653;SDS011;5883;48.818;9.114;2022-11-12T11:25:25;5.88;;;4.38;;
11653;SDS011;5883;48.818;9.114;2022-11-12T11:27:56;5.03;;;3.90;;
11653;SDS011;5883;48.818;9.114;2022-11-12T11:30:24;4.78;;;4.13;;
11653;SDS011;5883;48.818;9.114;2022-11-12T11:35:45;4.28;;;3.65;;
11653;SDS011;5883;48.818;9.114;2022-11-12T11:38:15;6.03;;;3.72;;
11653;SDS011;5883;48.818;9.114;2022-11-12T11:40:46;4.95;;;3.78;;
11653;SDS011;5883;48.818;9.114;2022-11-12T11:43:27;4.25;;;3.75;;
11653;SDS011;5883;48.818;9.114;2022-11-12T11:46:01;4.38;;;3.72;;
11653;SDS011;5883;48.818;9.114;2022-11-12T11:48:31;4.28;;;3.40;;
11653;SDS011;5883;48.818;9.114;2022-11-12T11:51:03;4.65;;;3.50;;
11653;SDS011;5883;48.818;9.114;2022-11-12T11:53:33;3.33;;;3.00;;
11653;SDS011;5883;48.818;9.114;2022-11-12T11:56:08;3.63;;;3.33;;
11653;SDS011;5883;48.818;9.114;2022-11-12T11:58:46;5.72;;;3.47;;
11653;SDS011;5883;48.818;9.114;2022-11-12T12:01:16;5.50;;;3.40;;
11653;SDS011;5883;48.818;9.114;2022-11-12T12:03:48;5.75;;;3.75;;
11653;SDS011;5883;48.818;9.114;2022-11-12T12:06:18;4.63;;;3.78;;
11653;SDS011;5883;48.818;9.114;2022-11-12T12:08:53;3.60;;;3.30;;
11653;SDS011;5883;48.818;9.114;2022-11-12T12:11:24;3.72;;;3.42;;
11653;SDS011;5883;48.818;9.114;2022-11-12T12:14:01;5.63;;;3.88;;
11653;SDS011;5883;48.818;9.114;2022-11-12T12:16:32;4.30;;;3.58;;
11653;SDS011;5883;48.818;9.114;2022-11-12T12:19:03;5.03;;;3.55;;
11653;SDS011;5883;48.818;9.114;2022-11-12T12:21:33;4.63;;;3.05;;
11653;SDS011;5883;48.818;9.114;2022-11-12T12:24:03;5.53;;;4.10;;
11653;SDS011;5883;48.818;9.114;2022-11-12T12:26:34;3.85;;;3.45;;
11653;SDS011;5883;48.818;9.114;2022-11-12T12:29:05;5.45;;;3.60;;
11653;SDS011;5883;48.818;9.114;2022-11-12T12:31:34;6.43;;;3.75;;
11653;SDS011;5883;48.818;9.114;2022-11-12T12:34:03;3.40;;;3.10;;
11653;SDS011;5883;48.818;9.114;2022-11-12T12:36:33;6.68;;;4.13;;
11653;SDS011;5883;48.818;9.114;2022-11-12T12:39:03;5.15;;;3.42;;
11653;SDS011;5883;48.818;9.114;2022-11-12T12:41:36;4.15;;;3.47;;
11653;SDS011;5883;48.818;9.114;2022-11-12T12:44:07;4.43;;;3.35;;
11653;SDS011;5883;48.818;9.114;2022-11-12T12:46:36;3.67;;;3.17;;
11653;SDS011;5883;48.818;9.114;2022-11-12T12:49:04;3.50;;;2.92;;
11653;SDS011;5883;48.818;9.114;2022-11-12T12:51:32;4.20;;;3.03;;
11653;SDS011;5883;48.818;9.114;2022-11-12T12:53:59;3.55;;;3.25;;
11653;SDS011;5883;48.818;9.114;2022-11-12T12:56:41;3.35;;;2.83;;
11653;SDS011;5883;48.818;9.114;2022-11-12T12:59:18;4.40;;;3.33;;
11653;SDS011;5883;48.818;9.114;2022-11-12T13:01:44;6.65;;;3.60;;
11653;SDS011;5883;48.818;9.114;2022-11-12T13:04:24;3.97;;;3.00;;
11653;SDS011;5883;48.818;9.114;2022-11-12T13:07:10;3.60;;;3.30;;
11653;SDS011;5883;48.818;9.114;2022-11-12T13:09:37;3.67;;;2.97;;
11653;SDS011;5883;48.818;9.114;2022-11-12T13:12:04;6.18;;;2.70;;
11653;SDS011;5883;48.818;9.114;2022-11-12T13:15:09;3.60;;;3.05;;
11653;SDS011;5883;48.818;9.114;2022-11-12T13:20:34;7.22;;;3.72;;
11653;SDS011;5883;48.818;9.114;2022-11-12T13:23:01;5.30;;;3.58;;
11653;SDS011;5883;48.818;9.114;2022-11-12T13:25:28;4.50;;;3.70;;
11653;SDS011;5883;48.818;9.114;2022-11-12T13:28:08;5.30;;;3.33;;
11653;SDS011;5883;48.818;9.114;2022-11-12T13:31:02;7.88;;;4.07;;
11653;SDS011;5883;48.818;9.114;2022-11-12T13:33:30;4.88;;;3.60;;
11653;SDS011;5883;48.818;9.114;2022-11-12T13:36:16;16.35;;;4.60;;
11653;SDS011;5883;48.818;9.114;2022-11-12T13:38:48;17.08;;;5.10;;
11653;SDS011;5883;48.818;9.114;2022-11-12T13:41:16;6.90;;;3.70;;
11653;SDS011;5883;48.818;9.114;2022-11-12T13:43:44;5.97;;;3.70;;
11653;SDS011;5883;48.818;9.114;2022-11-12T13:46:18;5.00;;;3.90;;
11653;SDS011;5883;48.818;9.114;2022-11-12T13:48:49;4.30;;;3.83;;
11653;SDS011;5883;48.818;9.114;2022-11-12T13:51:18;6.20;;;3.80;;
11653;SDS011;5883;48.818;9.114;2022-11-12T13:53:45;8.35;;;4.00;;
11653;SDS011;5883;48.818;9.114;2022-11-12T13:56:22;7.07;;;4.10;;
11653;SDS011;5883;48.818;9.114;2022-11-12T13:58:49;6.35;;;4.13;;
11653;SDS011;5883;48.818;9.114;2022-11-12T14:01:15;4.80;;;3.63;;
11653;SDS011;5883;48.818;9.114;2022-11-12T14:03:47;5.13;;;4.10;;
11653;SDS011;5883;48.818;9.114;2022-11-12T14:06:16;4.88;;;4.00;;
11653;SDS011;5883;48.818;9.114;2022-11-12T14:11:36;6.10;;;4.15;;
11653;SDS011;5883;48.818;9.114;2022-11-12T14:14:07;4.55;;;3.33;;
11653;SDS011;5883;48.818;9.114;2022-11-12T14:16:42;4.50;;;3.63;;
11653;SDS011;5883;48.818;9.114;2022-11-12T14:19:17;6.78;;;4.13;;
11653;SDS011;5883;48.818;9.114;2022-11-12T14:21:58;8.63;;;3.90;;
11653;SDS011;5883;48.818;9.114;2022-11-12T14:24:25;8.70;;;4.45;;
11653;SDS011;5883;48.818;9.114;2022-11-12T14:26:51;5.35;;;3.92;;
11653;SDS011;5883;48.818;9.114;2022-11-12T14:29:18;5.38;;;4.00;;
11653;SDS011;5883;48.818;9.114;2022-11-12T14:31:45;4.85;;;3.95;;
11653;SDS011;5883;48.818;9.114;2022-11-12T14:34:19;5.30;;;4.10;;
11653;SDS011;5883;48.818;9.114;2022-11-12T14:36:45;5.70;;;4.15;;
11653;SDS011;5883;48.818;9.114;2022-11-12T14:39:12;4.47;;;3.78;;
11653;SDS011;5883;48.818;9.114;2022-11-12T14:41:39;4.85;;;4.07;;
11653;SDS011;5883;48.818;9.114;2022-11-12T14:44:13;4.50;;;3.80;;
11653;SDS011;5883;48.818;9.114;2022-11-12T14:46:42;4.63;;;4.05;;
11653;SDS011;5883;48.818;9.114;2022-11-12T14:49:13;5.53;;;4.00;;
11653;SDS011;5883;48.818;9.114;2022-11-12T14:51:45;9.32;;;4.93;;
11653;SDS011;5883;48.818;9.114;2022-11-12T14:54:13;7.55;;;5.13;;
11653;SDS011;5883;48.818;9.114;2022-11-12T14:56:42;5.90;;;5.22;;
11653;SDS011;5883;48.818;9.114;2022-11-12T14:59:12;10.43;;;5.40;;
11653;SDS011;5883;48.818;9.114;2022-11-12T15:01:39;8.35;;;5.18;;
11653;SDS011;5883;48.818;9.114;2022-11-12T15:04:16;6.65;;;5.47;;
11653;SDS011;5883;48.818;9.114;2022-11-12T15:06:51;7.18;;;5.70;;
11653;SDS011;5883;48.818;9.114;2022-11-12T15:09:18;6.05;;;5.38;;
11653;SDS011;5883;48.818;9.114;2022-11-12T15:11:56;7.03;;;6.07;;
11653;SDS011;5883;48.818;9.114;2022-11-12T15:14:23;7.35;;;5.75;;
11653;SDS011;5883;48.818;9.114;2022-11-12T15:16:50;8.10;;;6.05;;
11653;SDS011;5883;48.818;9.114;2022-11-12T15:19:18;6.28;;;5.68;;